Airfield :
LOGIN :

Register | Disclaimer

   EN    FR    IT 

 










Legend :    VFR   Marginal VFR   IFR   Intensive IFR   Very Intensive IFR
Visi :
Ceiling :
>= 8 km
>= 3000ft
5 to 8 km
1000 to 3000 ft
1500m to 5 km
500 to 1000 ft
800 to 1500m
200 to 500 ft
< 800m
< 200 ft
Symbols :   Thunderstorms  Fog  Heavy snow  Heavy precipitations  Wind > 20 kt
SIGMETs :     Misc.  Thunderstorms  Icing  Turbulence  Mountain Waves  Volcanic Ashes







- Airport Elevation : 3 ft
- IATA code : LWR


EHLW - Leuuwarden Air Base

CURRENT METAR :
  • 152055Z AUTO 18004KT 9000 BR BKN048 OVC130 16/14 Q1014 BLU

EXPIRED METARs :
  • 152025Z AUTO 18004KT 160V220 9999 OVC120 16/14 Q1014 BLU
  • 151955Z AUTO 19003KT 9999 SCT055 OVC120 16/14 Q1014 BLU
  • 151925Z AUTO 18003KT 9999 OVC049 16/14 Q1014 BLU
  • 151855Z AUTO 21002KT 9999 SCT046 OVC120 16/14 Q1013 BLU
  • 151825Z AUTO 22002KT 9999 OVC120 16/14 Q1013 BLU
  • 151755Z AUTO 22002KT 9999 OVC120 16/14 Q1013 BLU

TAF AMD TAF EHLW
Valid from the 15 at 17:00 until the 16 at 05:00 UTC


151759Z 1517/1605 23005KT CAVOK
BECMG 1521/1524 4500 BR
BECMG 1600/1603 2000 BR
PROB30 1603/1605 VRB03KT 0800 FG SCT000 BKN001
No reported NOTAMs for that airfield.



MET'MAP, your aeronautical weather chart ! - Copyright ORBIFLY December 2007 - Disclaimer

ORBIFLY MET'MAP TEAM :

Programming & Development : Alexandra Zaïnal
Concept & Development : Baudouin d'Aumeries
Co-Development & Prog : Marc-Olivier Méhu
Technical & hardware support : Manuel Goepfert

Contact : metmap@orbifly.com




SOURCES & CREDITS :

   NOAA